createdAt,value
2022-08-03T00:00:58.453Z,7.45
2022-08-03T00:02:04.085Z,7.10
2022-08-03T00:03:10.979Z,6.75
2022-08-03T00:04:21.480Z,7.03
2022-08-03T00:05:37.251Z,6.65
2022-08-03T00:06:40.730Z,6.75
2022-08-03T00:07:49.693Z,6.60
2022-08-03T00:08:53.359Z,6.03
2022-08-03T00:10:02.470Z,6.97
2022-08-03T00:11:07.106Z,7.25
2022-08-03T00:12:30.445Z,6.85
2022-08-03T00:13:32.985Z,6.10
2022-08-03T00:14:43.460Z,7.10
2022-08-03T00:15:46.750Z,5.60
2022-08-03T00:16:51.520Z,6.40
2022-08-03T00:17:54.187Z,7.07
2022-08-03T00:19:04.495Z,6.30
2022-08-03T00:20:13.516Z,6.57
2022-08-03T00:21:16.742Z,7.18
2022-08-03T00:22:19.120Z,6.25
2022-08-03T00:23:22.358Z,6.33
2022-08-03T00:24:24.664Z,5.43
2022-08-03T00:25:34.491Z,6.20
2022-08-03T00:26:43.467Z,5.72
2022-08-03T00:27:48.384Z,4.80
2022-08-03T00:28:52.751Z,5.70
2022-08-03T00:29:59.319Z,5.40
2022-08-03T00:31:02.697Z,5.30
2022-08-03T00:32:14.769Z,5.23
2022-08-03T00:33:20.035Z,4.85
2022-08-03T00:34:35.244Z,5.60
2022-08-03T00:35:50.725Z,5.33
2022-08-03T00:36:53.487Z,5.10
2022-08-03T00:38:03.483Z,4.88
2022-08-03T00:39:05.764Z,4.70
2022-08-03T00:40:10.028Z,6.07
2022-08-03T00:41:19.534Z,5.40
2022-08-03T00:42:21.948Z,4.77
2022-08-03T00:43:31.847Z,4.83
2022-08-03T00:44:40.286Z,4.57
2022-08-03T00:45:44.703Z,4.83
2022-08-03T00:46:53.482Z,5.00
2022-08-03T00:47:58.802Z,4.68
2022-08-03T00:49:01.255Z,4.43
2022-08-03T00:50:05.393Z,5.23
2022-08-03T00:51:08.834Z,4.35
2022-08-03T00:52:18.539Z,4.33
2022-08-03T00:53:22.072Z,4.90
2022-08-03T00:54:26.025Z,4.40
2022-08-03T00:55:30.027Z,4.20
2022-08-03T00:56:32.551Z,4.60
2022-08-03T00:57:42.458Z,4.30
2022-08-03T00:58:47.322Z,3.93
2022-08-03T00:59:49.731Z,4.47
2022-08-03T01:00:53.228Z,4.20
2022-08-03T01:01:55.899Z,4.73
2022-08-03T01:03:07.533Z,3.63
2022-08-03T01:04:09.948Z,3.70
2022-08-03T01:05:13.295Z,3.80
2022-08-03T01:06:18.675Z,3.90
2022-08-03T01:07:31.852Z,4.00
2022-08-03T01:08:50.500Z,4.63
2022-08-03T01:10:01.012Z,4.47
2022-08-03T01:11:12.933Z,4.30
2022-08-03T01:12:42.486Z,4.30
2022-08-03T01:14:04.460Z,4.60
2022-08-03T01:15:36.494Z,4.60
2022-08-03T01:16:45.650Z,4.00
2022-08-03T01:17:57.681Z,4.37
2022-08-03T01:19:20.492Z,4.80
2022-08-03T01:20:31.493Z,4.20
2022-08-03T01:21:41.779Z,4.57
2022-08-03T01:23:22.242Z,4.80
2022-08-03T01:24:41.540Z,4.20
2022-08-03T01:26:09.931Z,4.30
2022-08-03T01:27:18.005Z,4.27
2022-08-03T01:28:35.067Z,4.43
2022-08-03T01:30:10.499Z,4.67
2022-08-03T01:31:25.488Z,3.80
2022-08-03T01:33:02.384Z,4.27
2022-08-03T01:34:04.471Z,4.07
2022-08-03T01:35:14.580Z,4.77
2022-08-03T01:36:29.498Z,4.70
2022-08-03T01:37:39.880Z,4.97
2022-08-03T01:38:47.657Z,4.93
2022-08-03T01:39:52.016Z,4.80
2022-08-03T01:40:58.999Z,4.57
2022-08-03T01:42:12.509Z,6.43
2022-08-03T01:44:26.862Z,4.50
2022-08-03T01:44:43.983Z,4.60
2022-08-03T01:45:49.479Z,4.00
2022-08-03T01:46:59.509Z,3.97
2022-08-03T01:48:03.962Z,4.53
2022-08-03T01:49:09.653Z,3.87
2022-08-03T01:50:14.413Z,4.53
2022-08-03T01:52:03.076Z,4.57
2022-08-03T01:52:51.825Z,3.93
2022-08-03T01:53:54.982Z,4.17
2022-08-03T01:55:00.224Z,3.50
2022-08-03T01:56:03.958Z,3.90
2022-08-03T01:57:14.497Z,2.97
2022-08-03T01:58:21.202Z,3.53
2022-08-03T01:59:25.908Z,2.70
2022-08-03T02:00:29.407Z,3.50
2022-08-03T02:02:16.023Z,2.63
2022-08-03T02:03:05.526Z,3.10
2022-08-03T02:04:09.229Z,2.77
2022-08-03T02:05:14.634Z,3.33
2022-08-03T02:07:01.305Z,2.57
2022-08-03T02:07:51.591Z,2.80
2022-08-03T02:08:55.817Z,2.57
2022-08-03T02:10:01.185Z,2.50
2022-08-03T02:11:04.616Z,2.33
2022-08-03T02:12:30.509Z,2.50
2022-08-03T02:13:41.618Z,2.83
2022-08-03T02:14:47.033Z,2.63
2022-08-03T02:15:50.276Z,2.47
2022-08-03T02:16:56.271Z,2.70
2022-08-03T02:18:06.481Z,2.43
2022-08-03T02:19:17.561Z,2.30
2022-08-03T02:20:21.395Z,2.60
2022-08-03T02:21:57.494Z,2.77
2022-08-03T02:22:48.432Z,2.63
2022-08-03T02:23:52.659Z,2.83
2022-08-03T02:25:02.578Z,2.80
2022-08-03T02:26:09.623Z,2.80
2022-08-03T02:27:20.850Z,2.83
2022-08-03T02:28:35.302Z,2.57
2022-08-03T02:29:43.022Z,2.83
2022-08-03T02:30:57.500Z,3.00
2022-08-03T02:32:04.510Z,3.50
2022-08-03T02:33:12.471Z,2.70
2022-08-03T02:34:16.159Z,2.63
2022-08-03T02:35:28.523Z,3.33
2022-08-03T02:36:35.213Z,2.27
2022-08-03T02:37:45.032Z,2.57
2022-08-03T02:38:55.242Z,2.37
2022-08-03T02:40:04.483Z,2.47
2022-08-03T02:41:19.509Z,2.23
2022-08-03T02:42:25.825Z,2.63
2022-08-03T02:43:56.773Z,2.70
2022-08-03T02:44:58.671Z,2.10
2022-08-03T02:46:07.545Z,2.90
2022-08-03T02:47:15.554Z,2.47
2022-08-03T02:48:20.608Z,2.57
2022-08-03T02:49:41.421Z,2.20
2022-08-03T02:50:49.854Z,2.37
2022-08-03T02:52:00.531Z,2.60
2022-08-03T02:53:05.466Z,2.20
2022-08-03T02:54:10.867Z,3.53
2022-08-03T02:55:16.090Z,2.30
2022-08-03T02:56:25.521Z,2.37
2022-08-03T02:57:30.973Z,2.73
2022-08-03T02:58:34.897Z,3.20
2022-08-03T02:59:40.080Z,1.93
2022-08-03T03:00:45.036Z,2.60
2022-08-03T03:01:55.539Z,1.80
2022-08-03T03:03:02.555Z,2.20
2022-08-03T03:04:07.393Z,2.17
2022-08-03T03:05:53.596Z,2.97
2022-08-03T03:06:43.593Z,1.93
2022-08-03T03:07:53.217Z,1.90
2022-08-03T03:08:59.889Z,1.90
2022-08-03T03:10:04.110Z,2.10
2022-08-03T03:11:08.912Z,1.90
2022-08-03T03:12:20.540Z,1.73
2022-08-03T03:13:38.549Z,2.47
2022-08-03T03:14:41.222Z,2.33
2022-08-03T03:15:46.143Z,1.93
2022-08-03T03:16:50.676Z,2.20
2022-08-03T03:17:56.598Z,2.27
2022-08-03T03:19:08.543Z,2.10
2022-08-03T03:20:12.753Z,2.10
2022-08-03T03:21:24.523Z,2.07
2022-08-03T03:22:28.708Z,1.90
2022-08-03T03:23:32.114Z,1.93
2022-08-03T03:24:45.529Z,2.30
2022-08-03T03:25:48.732Z,2.30
2022-08-03T03:26:52.368Z,2.00
2022-08-03T03:27:54.812Z,1.87
2022-08-03T03:29:04.542Z,2.60
2022-08-03T03:30:09.119Z,2.37
2022-08-03T03:31:12.761Z,2.13
2022-08-03T03:32:15.426Z,2.43
2022-08-03T03:33:28.230Z,2.30
2022-08-03T03:34:32.568Z,2.33
2022-08-03T03:35:38.917Z,2.17
2022-08-03T03:36:49.522Z,2.20
2022-08-03T03:37:59.545Z,2.27
2022-08-03T03:39:15.995Z,2.20
2022-08-03T03:40:19.517Z,2.27
2022-08-03T03:41:22.808Z,2.67
2022-08-03T03:42:25.993Z,2.70
2022-08-03T03:43:30.546Z,1.83
2022-08-03T03:44:39.592Z,2.23
2022-08-03T03:45:43.494Z,2.27
2022-08-03T03:46:45.956Z,2.00
2022-08-03T03:47:49.507Z,2.30
2022-08-03T03:48:51.964Z,1.73
2022-08-03T03:50:05.617Z,2.63
2022-08-03T03:51:09.303Z,2.07
2022-08-03T03:52:11.621Z,2.40
2022-08-03T03:53:16.219Z,2.80
2022-08-03T03:54:18.595Z,2.17
2022-08-03T03:55:28.952Z,2.20
2022-08-03T03:56:31.367Z,2.37
2022-08-03T03:57:35.749Z,2.10
2022-08-03T03:58:38.059Z,1.80
2022-08-03T03:59:41.747Z,2.50
2022-08-03T04:00:51.576Z,2.10
2022-08-03T04:01:59.276Z,2.40
2022-08-03T04:03:01.896Z,2.47
2022-08-03T04:04:19.219Z,2.27
2022-08-03T04:05:46.035Z,2.27
2022-08-03T04:07:07.401Z,2.20
2022-08-03T04:08:30.830Z,2.53
2022-08-03T04:09:55.072Z,2.80
2022-08-03T04:11:15.591Z,2.40
2022-08-03T04:12:20.102Z,2.00
2022-08-03T04:13:30.702Z,2.60
2022-08-03T04:14:36.306Z,3.17
2022-08-03T04:15:47.588Z,3.53
2022-08-03T04:16:54.703Z,2.83
2022-08-03T04:17:59.420Z,2.20
2022-08-03T04:19:04.942Z,2.73
2022-08-03T04:20:08.250Z,1.73
2022-08-03T04:21:22.539Z,3.03
2022-08-03T04:22:35.556Z,1.97
2022-08-03T04:23:43.036Z,2.63
2022-08-03T04:24:50.752Z,2.53
2022-08-03T04:25:54.883Z,2.33
2022-08-03T04:27:00.332Z,2.13
2022-08-03T04:28:29.532Z,2.03
2022-08-03T04:29:36.085Z,2.30
2022-08-03T04:30:48.239Z,2.37
2022-08-03T04:31:59.600Z,2.40
2022-08-03T04:33:02.970Z,3.60
2022-08-03T04:34:07.120Z,2.27
2022-08-03T04:35:09.723Z,2.33
2022-08-03T04:36:20.739Z,2.00
2022-08-03T04:37:37.588Z,1.70
2022-08-03T04:38:53.933Z,1.73
2022-08-03T04:40:00.174Z,1.83
2022-08-03T04:41:04.078Z,1.63
2022-08-03T04:42:14.009Z,1.37
2022-08-03T04:43:25.633Z,1.60
2022-08-03T04:44:30.538Z,1.47
2022-08-03T04:45:34.365Z,1.50
2022-08-03T04:46:40.880Z,1.80
2022-08-03T04:47:53.637Z,1.47
2022-08-03T04:49:06.636Z,1.47
2022-08-03T04:50:12.970Z,1.63
2022-08-03T04:51:18.997Z,1.53
2022-08-03T04:52:21.411Z,1.50
2022-08-03T04:53:31.549Z,1.70
2022-08-03T04:54:50.516Z,1.70
2022-08-03T04:55:53.330Z,2.00
2022-08-03T04:56:56.565Z,1.67
2022-08-03T04:58:00.037Z,1.70
2022-08-03T04:59:09.590Z,1.70
2022-08-03T05:00:12.814Z,1.70
2022-08-03T05:01:17.000Z,1.90
2022-08-03T05:02:19.657Z,1.90
2022-08-03T05:03:24.321Z,1.67
2022-08-03T05:04:33.624Z,1.77
2022-08-03T05:05:50.661Z,1.40
2022-08-03T05:06:55.935Z,2.23
2022-08-03T05:07:59.201Z,1.70
2022-08-03T05:09:04.233Z,1.73
2022-08-03T05:10:16.313Z,1.80
2022-08-03T05:11:19.360Z,1.63
2022-08-03T05:12:23.779Z,1.17
2022-08-03T05:13:46.548Z,1.50
2022-08-03T05:14:48.856Z,1.90
2022-08-03T05:15:59.589Z,1.53
2022-08-03T05:17:01.922Z,1.63
2022-08-03T05:18:05.369Z,1.40
2022-08-03T05:19:10.508Z,1.83
2022-08-03T05:20:13.855Z,1.70
2022-08-03T05:21:51.859Z,2.00
2022-08-03T05:22:52.079Z,1.70
2022-08-03T05:24:00.584Z,1.70
2022-08-03T05:25:05.006Z,1.73
2022-08-03T05:26:07.318Z,1.40
2022-08-03T05:27:12.660Z,1.60
2022-08-03T05:28:15.900Z,1.87
2022-08-03T05:29:24.611Z,1.60
2022-08-03T05:30:33.900Z,1.57
2022-08-03T05:31:43.566Z,1.17
2022-08-03T05:32:46.909Z,1.60
2022-08-03T05:33:49.406Z,1.77
2022-08-03T05:34:52.672Z,2.13
2022-08-03T05:36:04.300Z,1.63
2022-08-03T05:37:08.371Z,1.80
2022-08-03T05:38:12.828Z,1.30
2022-08-03T05:39:16.082Z,1.30
2022-08-03T05:40:25.616Z,1.43
2022-08-03T05:41:37.071Z,2.10
2022-08-03T05:42:40.265Z,1.80
2022-08-03T05:43:43.720Z,1.77
2022-08-03T05:44:46.001Z,1.37
2022-08-03T05:46:12.172Z,1.80
2022-08-03T05:47:22.598Z,1.70
2022-08-03T05:48:24.960Z,1.50
2022-08-03T05:49:28.292Z,1.93
2022-08-03T05:50:30.676Z,1.87
2022-08-03T05:51:40.594Z,2.17
2022-08-03T05:52:43.581Z,2.23
2022-08-03T05:53:48.321Z,1.17
2022-08-03T05:54:56.374Z,1.30
2022-08-03T05:56:03.495Z,1.20
2022-08-03T05:57:25.678Z,1.40
2022-08-03T05:58:29.980Z,1.60
2022-08-03T05:59:38.448Z,1.67
2022-08-03T06:00:41.215Z,2.07
2022-08-03T06:01:50.877Z,1.80
2022-08-03T06:02:53.227Z,1.97
2022-08-03T06:03:56.535Z,1.47
2022-08-03T06:04:59.046Z,1.33
2022-08-03T06:06:02.657Z,1.77
2022-08-03T06:07:12.590Z,1.30
2022-08-03T06:08:15.402Z,2.03
2022-08-03T06:09:20.277Z,1.17
2022-08-03T06:10:36.657Z,1.90
2022-08-03T06:11:42.173Z,1.70
2022-08-03T06:12:54.586Z,1.73
2022-08-03T06:14:05.080Z,1.63
2022-08-03T06:15:11.390Z,1.20
2022-08-03T06:16:15.009Z,1.50
2022-08-03T06:17:24.694Z,1.23
2022-08-03T06:18:30.176Z,1.67
2022-08-03T06:19:34.815Z,1.57
2022-08-03T06:20:37.155Z,1.93
2022-08-03T06:21:40.906Z,1.23
2022-08-03T06:22:51.033Z,1.60
2022-08-03T06:24:03.670Z,1.67
2022-08-03T06:25:16.595Z,1.50
2022-08-03T06:26:29.155Z,1.20
2022-08-03T06:27:37.062Z,2.00
2022-08-03T06:28:53.165Z,1.50
2022-08-03T06:29:57.102Z,1.97
2022-08-03T06:30:59.806Z,1.87
2022-08-03T06:32:03.029Z,1.83
2022-08-03T06:33:05.265Z,1.53
2022-08-03T06:34:34.303Z,2.20
2022-08-03T06:35:39.846Z,1.50
2022-08-03T06:36:44.779Z,1.40
2022-08-03T06:37:50.128Z,1.13
2022-08-03T06:38:58.617Z,1.83
2022-08-03T06:40:01.837Z,1.53
2022-08-03T06:41:05.417Z,1.50
2022-08-03T06:42:09.885Z,1.53
2022-08-03T06:43:14.917Z,1.53
2022-08-03T06:44:26.683Z,1.33
2022-08-03T06:45:31.821Z,1.40
2022-08-03T06:46:35.678Z,1.27
2022-08-03T06:47:38.655Z,1.50
2022-08-03T06:48:48.226Z,1.10
2022-08-03T06:50:16.362Z,1.00
2022-08-03T06:51:19.811Z,1.23
2022-08-03T06:52:37.640Z,1.13
2022-08-03T06:53:41.490Z,1.40
2022-08-03T06:54:57.688Z,1.27
2022-08-03T06:56:00.941Z,1.10
2022-08-03T06:57:13.187Z,1.00
2022-08-03T06:58:15.528Z,1.30
2022-08-03T07:00:10.939Z,1.40
2022-08-03T07:00:48.622Z,1.00
2022-08-03T07:01:51.005Z,1.00
2022-08-03T07:02:58.266Z,1.03
2022-08-03T07:04:01.298Z,1.20
2022-08-03T07:05:05.040Z,1.10
2022-08-03T07:06:14.638Z,1.23
2022-08-03T07:07:17.843Z,1.67
2022-08-03T07:08:34.064Z,1.20
2022-08-03T07:09:36.788Z,1.57
2022-08-03T07:10:46.615Z,1.63
2022-08-03T07:11:48.948Z,1.00
2022-08-03T07:13:13.618Z,1.10
2022-08-03T07:14:16.058Z,1.07
2022-08-03T07:15:20.639Z,1.37
2022-08-03T07:16:48.628Z,1.30
2022-08-03T07:17:58.647Z,1.40
2022-08-03T07:19:00.928Z,1.23
2022-08-03T07:20:08.021Z,1.40
2022-08-03T07:21:11.071Z,1.60
2022-08-03T07:22:14.259Z,1.27
2022-08-03T07:23:22.627Z,1.30
2022-08-03T07:24:25.909Z,1.67
2022-08-03T07:25:30.774Z,1.20
2022-08-03T07:26:34.008Z,1.47
2022-08-03T07:27:36.473Z,1.17
2022-08-03T07:28:47.635Z,1.30
2022-08-03T07:29:49.921Z,1.20
2022-08-03T07:30:53.262Z,1.33
2022-08-03T07:31:55.734Z,1.43
2022-08-03T07:32:58.977Z,1.10
2022-08-03T07:34:08.638Z,1.50
2022-08-03T07:35:16.919Z,0.90
2022-08-03T07:36:28.478Z,1.20
2022-08-03T07:37:32.204Z,1.27
2022-08-03T07:38:42.638Z,1.30
2022-08-03T07:39:45.938Z,1.00
2022-08-03T07:40:48.422Z,1.37
2022-08-03T07:41:51.979Z,1.10
2022-08-03T07:42:54.291Z,1.10
2022-08-03T07:44:05.648Z,1.20
2022-08-03T07:45:16.586Z,1.63
2022-08-03T07:46:19.285Z,1.48
2022-08-03T07:47:24.835Z,1.20
2022-08-03T07:48:33.655Z,1.15
2022-08-03T07:49:41.800Z,1.10
2022-08-03T07:50:44.958Z,1.40
2022-08-03T07:52:08.136Z,1.27
2022-08-03T07:53:11.390Z,1.02
2022-08-03T07:54:20.828Z,1.08
2022-08-03T07:55:26.542Z,1.45
2022-08-03T07:56:29.307Z,1.05
2022-08-03T07:57:32.798Z,1.27
2022-08-03T07:58:44.780Z,1.30
2022-08-03T07:59:56.816Z,1.27
2022-08-03T08:01:11.687Z,1.30
2022-08-03T08:02:26.777Z,1.52
2022-08-03T08:03:52.952Z,1.05
2022-08-03T08:04:53.616Z,1.17
2022-08-03T08:06:03.640Z,1.20
2022-08-03T08:07:10.353Z,1.40
2022-08-03T08:08:40.574Z,1.08
2022-08-03T08:09:43.012Z,1.23
2022-08-03T08:10:58.137Z,1.52
2022-08-03T08:12:07.729Z,1.67
2022-08-03T08:13:38.609Z,0.88
2022-08-03T08:14:41.841Z,1.35
2022-08-03T08:15:46.285Z,1.30
2022-08-03T08:16:56.645Z,1.00
2022-08-03T08:18:02.513Z,1.52
2022-08-03T08:19:05.811Z,1.10
2022-08-03T08:20:10.270Z,1.48
2022-08-03T08:21:12.554Z,1.30
2022-08-03T08:22:29.796Z,1.30
2022-08-03T08:23:42.051Z,0.95
2022-08-03T08:24:48.501Z,1.08
2022-08-03T08:26:03.864Z,1.20
2022-08-03T08:27:06.328Z,1.20
2022-08-03T08:28:29.786Z,1.40
2022-08-03T08:29:35.158Z,1.55
2022-08-03T08:30:37.482Z,1.20
2022-08-03T08:31:41.919Z,1.40
2022-08-03T08:32:52.261Z,1.25
2022-08-03T08:34:04.293Z,1.20
2022-08-03T08:35:09.299Z,1.60
2022-08-03T08:36:15.578Z,1.30
2022-08-03T08:37:18.127Z,1.33
2022-08-03T08:38:27.641Z,1.17
2022-08-03T08:39:29.908Z,1.13
2022-08-03T08:40:33.474Z,1.35
2022-08-03T08:41:36.225Z,1.15
2022-08-03T08:42:47.913Z,1.48
2022-08-03T08:44:09.295Z,1.10
2022-08-03T08:45:14.982Z,1.23
2022-08-03T08:46:28.735Z,1.15
2022-08-03T08:47:51.199Z,1.38
2022-08-03T08:49:05.215Z,1.25
2022-08-03T08:50:27.360Z,1.40
2022-08-03T08:51:54.614Z,1.10
2022-08-03T08:53:03.867Z,1.27
2022-08-03T08:54:15.689Z,1.10
2022-08-03T08:55:24.884Z,1.50
2022-08-03T08:56:27.425Z,1.48
2022-08-03T08:57:42.765Z,1.20
2022-08-03T08:58:52.355Z,1.45
2022-08-03T09:00:03.675Z,1.35
2022-08-03T09:01:07.039Z,1.73
2022-08-03T09:02:09.781Z,1.20
2022-08-03T09:03:29.750Z,1.40
2022-08-03T09:04:39.818Z,1.20
2022-08-03T09:05:55.760Z,1.50
2022-08-03T09:07:19.141Z,1.38
2022-08-03T09:08:23.953Z,1.33
2022-08-03T09:10:04.813Z,1.52
2022-08-03T09:10:56.700Z,1.48
2022-08-03T09:12:20.900Z,1.30
2022-08-03T09:13:44.666Z,1.30
2022-08-03T09:15:07.404Z,1.33
2022-08-03T09:16:21.685Z,2.15
2022-08-03T09:17:24.935Z,1.30
2022-08-03T09:18:32.450Z,1.40
2022-08-03T09:19:37.046Z,1.40
2022-08-03T09:20:47.705Z,1.33
2022-08-03T09:22:09.778Z,1.25
2022-08-03T09:23:58.948Z,1.20
2022-08-03T09:24:41.540Z,1.65
2022-08-03T09:25:52.689Z,1.40
2022-08-03T09:26:55.966Z,1.13
2022-08-03T09:28:07.260Z,1.33
2022-08-03T09:29:15.634Z,1.80
2022-08-03T09:30:34.487Z,1.30
2022-08-03T09:31:47.103Z,1.55
2022-08-03T09:32:49.937Z,1.65
2022-08-03T09:33:59.829Z,1.17
2022-08-03T09:35:09.518Z,1.30
2022-08-03T09:36:35.002Z,1.80
2022-08-03T09:38:08.569Z,1.75
2022-08-03T09:39:11.989Z,1.20
2022-08-03T09:40:36.315Z,1.42
2022-08-03T09:41:40.028Z,1.35
2022-08-03T09:43:04.726Z,1.52
2022-08-03T09:44:25.157Z,1.70
2022-08-03T09:45:30.055Z,1.40
2022-08-03T09:46:33.316Z,1.42
2022-08-03T09:47:44.976Z,1.45
2022-08-03T09:48:47.607Z,1.60
2022-08-03T09:50:02.057Z,1.15
2022-08-03T09:51:14.041Z,1.48
2022-08-03T09:52:39.058Z,1.52
2022-08-03T09:54:00.077Z,1.60
2022-08-03T09:55:23.412Z,1.30
2022-08-03T09:56:48.440Z,1.73
2022-08-03T09:57:51.747Z,1.40
2022-08-03T09:58:54.105Z,1.42
2022-08-03T10:00:16.694Z,1.48
2022-08-03T10:01:24.425Z,1.55
2022-08-03T10:02:29.368Z,1.70
2022-08-03T10:04:03.481Z,1.60
2022-08-03T10:05:08.318Z,1.45
2022-08-03T10:06:19.445Z,1.73
2022-08-03T10:07:24.072Z,1.55
2022-08-03T10:08:26.573Z,1.48
2022-08-03T10:11:00.730Z,1.52
2022-08-03T10:12:12.778Z,1.65
2022-08-03T10:13:18.753Z,1.30
2022-08-03T10:14:23.331Z,1.50
2022-08-03T10:16:24.017Z,1.42
2022-08-03T10:16:56.169Z,20.85
2022-08-03T10:17:58.489Z,1.48
2022-08-03T10:19:01.795Z,1.75
2022-08-03T10:20:14.712Z,1.50
2022-08-03T10:21:24.777Z,1.30
2022-08-03T10:22:29.130Z,1.80
2022-08-03T10:23:35.122Z,1.30
2022-08-03T10:24:40.472Z,1.75
2022-08-03T10:25:44.857Z,1.60
2022-08-03T10:26:54.720Z,1.90
2022-08-03T10:27:58.577Z,1.60
2022-08-03T10:29:03.559Z,1.98
2022-08-03T10:30:09.026Z,1.60
2022-08-03T10:31:18.772Z,1.77
2022-08-03T10:32:24.537Z,1.70
2022-08-03T10:33:50.955Z,1.50
2022-08-03T10:35:00.336Z,1.63
2022-08-03T10:36:09.791Z,1.45
2022-08-03T10:37:21.763Z,1.50
2022-08-03T10:38:39.681Z,1.35
2022-08-03T10:39:53.425Z,1.60
2022-08-03T10:40:59.209Z,1.52
2022-08-03T10:42:03.092Z,1.95
2022-08-03T10:43:15.741Z,1.75
2022-08-03T10:44:20.445Z,1.50
2022-08-03T10:45:25.144Z,1.58
2022-08-03T10:46:29.406Z,1.55
2022-08-03T10:47:32.738Z,1.63
2022-08-03T10:48:43.784Z,1.63
2022-08-03T10:49:49.929Z,1.65
2022-08-03T10:50:53.154Z,1.50
2022-08-03T10:51:57.973Z,1.30
2022-08-03T10:53:03.988Z,1.83
2022-08-03T10:54:12.764Z,1.50
2022-08-03T10:55:44.983Z,1.20
2022-08-03T10:57:14.539Z,1.60
2022-08-03T10:59:00.710Z,1.63
2022-08-03T11:00:08.273Z,1.42
2022-08-03T11:01:13.553Z,1.10
2022-08-03T11:02:16.443Z,1.27
2022-08-03T11:03:20.112Z,1.60
2022-08-03T11:04:31.932Z,1.50
2022-08-03T11:05:38.352Z,1.30
2022-08-03T11:06:42.748Z,1.40
2022-08-03T11:07:54.630Z,1.42
2022-08-03T11:09:14.066Z,1.42
2022-08-03T11:10:37.901Z,1.48
2022-08-03T11:11:48.930Z,1.30
2022-08-03T11:13:06.573Z,1.30
2022-08-03T11:14:11.317Z,1.42
2022-08-03T11:15:20.813Z,2.70
2022-08-03T11:16:25.074Z,1.63
2022-08-03T11:17:29.034Z,2.10
2022-08-03T11:18:31.549Z,1.58
2022-08-03T11:19:57.087Z,1.50
2022-08-03T11:21:09.912Z,1.48
2022-08-03T11:22:14.011Z,1.60
2022-08-03T11:23:20.230Z,1.75
2022-08-03T11:25:02.498Z,1.65
2022-08-03T11:26:33.794Z,1.70
2022-08-03T11:27:37.654Z,1.50
2022-08-03T11:28:46.749Z,1.30
2022-08-03T11:29:57.423Z,1.50
2022-08-03T11:31:59.903Z,1.80
2022-08-03T11:33:03.536Z,1.23
2022-08-03T11:34:06.672Z,1.50
2022-08-03T11:35:10.551Z,1.80
2022-08-03T11:36:16.560Z,2.05
2022-08-03T11:38:03.345Z,1.60
2022-08-03T11:39:20.300Z,1.80
2022-08-03T11:40:35.022Z,1.65
2022-08-03T11:41:44.894Z,1.38
2022-08-03T11:42:55.767Z,1.20
2022-08-03T11:43:59.013Z,1.52
2022-08-03T11:45:02.768Z,1.33
2022-08-03T11:46:12.575Z,1.60
2022-08-03T11:47:17.858Z,1.67
2022-08-03T11:48:27.740Z,1.48
2022-08-03T11:49:30.399Z,1.50
2022-08-03T11:50:38.550Z,1.40
2022-08-03T11:51:42.094Z,1.48
2022-08-03T11:52:50.768Z,1.67
2022-08-03T11:53:54.700Z,1.50
2022-08-03T11:54:58.631Z,1.60
2022-08-03T11:56:12.508Z,1.20
2022-08-03T11:59:10.935Z,1.42
2022-08-03T11:59:20.470Z,1.40
2022-08-03T12:00:29.730Z,1.50
2022-08-03T12:01:33.240Z,1.33
2022-08-03T12:02:43.911Z,1.30
2022-08-03T12:03:47.909Z,1.35
2022-08-03T12:04:51.392Z,1.20
2022-08-03T12:06:01.773Z,1.58
2022-08-03T12:07:04.985Z,1.33
2022-08-03T12:08:15.778Z,1.23
2022-08-03T12:09:21.244Z,1.30
2022-08-03T12:10:26.400Z,1.60
2022-08-03T12:11:36.311Z,1.42
2022-08-03T12:12:57.180Z,1.67
2022-08-03T12:14:49.234Z,1.13
2022-08-03T12:15:34.309Z,1.00
2022-08-03T12:16:38.152Z,1.70
2022-08-03T12:17:41.846Z,1.30
2022-08-03T12:18:51.907Z,1.20
2022-08-03T12:19:54.633Z,1.50
2022-08-03T12:21:06.474Z,1.13
2022-08-03T12:22:15.910Z,1.20
2022-08-03T12:23:19.802Z,1.00
2022-08-03T12:24:23.544Z,1.10
2022-08-03T12:25:39.152Z,1.10
2022-08-03T12:26:58.857Z,1.50
2022-08-03T12:28:36.150Z,1.42
2022-08-03T12:29:41.381Z,1.63
2022-08-03T12:30:44.443Z,1.25
2022-08-03T12:31:48.017Z,1.48
2022-08-03T12:32:50.640Z,1.50
2022-08-03T12:34:03.728Z,1.05
2022-08-03T12:35:12.784Z,1.75
2022-08-03T12:36:16.566Z,1.33
2022-08-03T12:37:22.492Z,1.35
2022-08-03T12:38:32.558Z,1.38
2022-08-03T12:39:38.881Z,1.60
2022-08-03T12:41:10.749Z,1.30
2022-08-03T12:42:13.304Z,1.33
2022-08-03T12:43:16.756Z,1.48
2022-08-03T12:44:26.757Z,1.35
2022-08-03T12:45:38.764Z,1.70
2022-08-03T12:46:47.722Z,1.33
2022-08-03T12:47:51.432Z,1.20
2022-08-03T12:49:05.872Z,1.35
2022-08-03T12:50:14.820Z,1.42
2022-08-03T12:51:18.313Z,1.45
2022-08-03T12:52:21.507Z,1.30
2022-08-03T12:53:31.098Z,1.60
2022-08-03T12:54:36.028Z,1.60
2022-08-03T12:56:04.365Z,1.33
2022-08-03T12:57:15.669Z,1.42
2022-08-03T12:58:31.198Z,1.33
2022-08-03T12:59:40.794Z,1.48
2022-08-03T13:01:05.078Z,1.60
2022-08-03T13:02:17.761Z,1.30
2022-08-03T13:03:39.375Z,1.33
2022-08-03T13:04:43.909Z,1.52
2022-08-03T13:05:52.786Z,1.25
2022-08-03T13:07:02.895Z,1.10
2022-08-03T13:08:12.822Z,1.00
2022-08-03T13:09:16.300Z,1.25
2022-08-03T13:10:28.607Z,1.30
2022-08-03T13:12:02.074Z,1.10
2022-08-03T13:13:14.776Z,1.00
2022-08-03T13:14:23.980Z,1.33
2022-08-03T13:15:29.846Z,1.30
2022-08-03T13:16:41.349Z,1.05
2022-08-03T13:17:44.916Z,1.25
2022-08-03T13:18:48.036Z,1.42
2022-08-03T13:19:58.777Z,0.95
2022-08-03T13:21:02.230Z,7.68
2022-08-03T13:22:13.443Z,1.65
2022-08-03T13:23:22.627Z,1.50
2022-08-03T13:24:32.821Z,1.30
2022-08-03T13:25:36.243Z,1.17
2022-08-03T13:26:38.755Z,1.00
2022-08-03T13:28:04.119Z,1.33
2022-08-03T13:29:07.466Z,1.20
2022-08-03T13:30:21.082Z,1.33
2022-08-03T13:31:33.752Z,1.05
2022-08-03T13:32:36.216Z,1.20
2022-08-03T13:33:40.796Z,1.00
2022-08-03T13:34:43.246Z,1.23
2022-08-03T13:35:52.824Z,1.65
2022-08-03T13:37:09.049Z,0.98
2022-08-03T13:38:13.179Z,1.10
2022-08-03T13:39:17.977Z,1.27
2022-08-03T13:40:23.806Z,1.10
2022-08-03T13:41:38.784Z,0.82
2022-08-03T13:42:42.557Z,1.42
2022-08-03T13:43:45.093Z,1.20
2022-08-03T13:44:51.320Z,1.20
2022-08-03T13:46:00.823Z,1.23
2022-08-03T13:47:04.290Z,1.33
2022-08-03T13:48:14.798Z,1.40
2022-08-03T13:49:38.216Z,1.45
2022-08-03T13:50:43.092Z,1.40
2022-08-03T13:51:46.830Z,1.38
2022-08-03T13:52:56.812Z,1.15
2022-08-03T13:53:59.952Z,1.23
2022-08-03T13:55:10.893Z,1.10
2022-08-03T13:56:13.488Z,1.00
2022-08-03T13:58:02.873Z,0.95
2022-08-03T13:58:46.792Z,1.33
2022-08-03T13:59:50.890Z,1.02
2022-08-03T14:00:54.357Z,1.30
2022-08-03T14:01:56.913Z,1.05
2022-08-03T14:03:15.342Z,2.55
2022-08-03T14:04:22.036Z,1.10
2022-08-03T14:05:25.102Z,1.00
2022-08-03T14:06:34.889Z,1.38
2022-08-03T14:07:37.492Z,1.40
2022-08-03T14:08:41.071Z,1.00
2022-08-03T14:09:44.553Z,1.00
2022-08-03T14:10:48.082Z,1.10
2022-08-03T14:12:08.707Z,1.13
2022-08-03T14:13:18.990Z,1.13
2022-08-03T14:14:21.526Z,1.25
2022-08-03T14:15:26.622Z,1.20
2022-08-03T14:16:30.120Z,1.20
2022-08-03T14:17:42.210Z,1.20
2022-08-03T14:18:53.261Z,1.42
2022-08-03T14:19:55.891Z,1.30
2022-08-03T14:21:07.834Z,1.30
2022-08-03T14:22:11.346Z,1.33
2022-08-03T14:23:21.890Z,1.10
2022-08-03T14:24:25.340Z,1.60
2022-08-03T14:25:28.011Z,1.70
2022-08-03T14:26:31.551Z,1.30
2022-08-03T14:27:34.130Z,1.33
2022-08-03T14:28:44.857Z,1.40
2022-08-03T14:29:47.371Z,1.23
2022-08-03T14:30:52.272Z,1.40
2022-08-03T14:32:11.475Z,1.08
2022-08-03T14:33:15.384Z,1.20
2022-08-03T14:34:25.903Z,4.20
2022-08-03T14:35:30.174Z,1.45
2022-08-03T14:36:33.624Z,1.52
2022-08-03T14:37:36.356Z,1.40
2022-08-03T14:38:39.800Z,1.45
2022-08-03T14:40:04.471Z,1.10
2022-08-03T14:41:12.207Z,1.40
2022-08-03T14:42:23.751Z,1.40
2022-08-03T14:43:33.734Z,1.30
2022-08-03T14:44:36.892Z,1.40
2022-08-03T14:45:46.866Z,1.30
2022-08-03T14:46:51.701Z,1.45
2022-08-03T14:50:34.711Z,1.10
2022-08-03T14:50:36.512Z,1.10
2022-08-03T14:50:44.464Z,1.20
2022-08-03T14:51:58.831Z,1.15
2022-08-03T14:53:05.076Z,0.93
2022-08-03T14:54:09.693Z,1.38
2022-08-03T14:55:13.182Z,1.00
2022-08-03T14:56:16.610Z,1.23
2022-08-03T14:57:25.881Z,1.40
2022-08-03T14:58:29.471Z,1.20
2022-08-03T14:59:56.659Z,1.30
2022-08-03T15:00:56.500Z,1.13
2022-08-03T15:02:02.154Z,0.88
2022-08-03T15:03:17.519Z,1.10
2022-08-03T15:04:21.179Z,1.00
2022-08-03T15:05:24.090Z,1.20
2022-08-03T15:06:27.534Z,1.05
2022-08-03T15:07:36.879Z,1.25
2022-08-03T15:08:40.382Z,1.20
2022-08-03T15:09:49.881Z,1.30
2022-08-03T15:10:52.591Z,1.20
2022-08-03T15:12:09.106Z,1.23
2022-08-03T15:13:11.660Z,0.90
2022-08-03T15:14:15.311Z,1.40
2022-08-03T15:15:24.921Z,1.20
2022-08-03T15:16:30.067Z,1.40
2022-08-03T15:17:34.458Z,1.30
2022-08-03T15:18:38.603Z,1.40
2022-08-03T15:20:00.301Z,1.08
2022-08-03T15:21:46.035Z,1.10
2022-08-03T15:22:35.461Z,1.10
2022-08-03T15:23:37.962Z,1.20
2022-08-03T15:24:47.860Z,1.00